Terminal Aerodrome Forecast
Issued by NWS

Home | Current Version | Previous Version | Text Only | Print | Product List | Glossary On
Versions: 1 2 3 4 5 6 7 8 9 10 11 12 13 14 15 16 17 18 19 20 21 22 23 24
303
FTUS46 KPDT 231955 AAA
TAFALW
TAF AMD
KALW 231955Z 2320/2418 20019G27KT P6SM -SHRA SCT050 BKN070 OVC100
     FM232300 23020G30KT P6SM -SHRA BKN060 OVC090
     FM240100 23018G26KT P6SM -SHRA OVC050
     FM240300 22014G22KT P6SM VCSH BKN050 OVC070
     FM240800 20012KT P6SM SCT050 BKN070=

USA.gov is the U.S. government's official web portal to all federal, state and local government web resources and services.